sensor_id;sensor_type;location;lat;lon;timestamp;P1;durP1;ratioP1;P2;durP2;ratioP2
179;SDS011;78;48.788;9.010;2023-05-27T00:01:22;31.40;;;9.90;;
179;SDS011;78;48.788;9.010;2023-05-27T00:03:49;34.07;;;10.70;;
179;SDS011;78;48.788;9.010;2023-05-27T00:06:15;29.93;;;10.07;;
179;SDS011;78;48.788;9.010;2023-05-27T00:08:41;28.13;;;10.33;;
179;SDS011;78;48.788;9.010;2023-05-27T00:11:07;31.67;;;9.90;;
179;SDS011;78;48.788;9.010;2023-05-27T00:13:33;32.00;;;10.27;;
179;SDS011;78;48.788;9.010;2023-05-27T00:15:59;36.63;;;10.77;;
179;SDS011;78;48.788;9.010;2023-05-27T00:18:25;35.90;;;10.03;;
179;SDS011;78;48.788;9.010;2023-05-27T00:20:51;32.57;;;10.90;;
179;SDS011;78;48.788;9.010;2023-05-27T00:23:18;31.77;;;9.47;;
179;SDS011;78;48.788;9.010;2023-05-27T00:25:44;26.30;;;9.60;;
179;SDS011;78;48.788;9.010;2023-05-27T00:28:12;29.07;;;9.40;;
179;SDS011;78;48.788;9.010;2023-05-27T00:30:38;30.63;;;9.70;;
179;SDS011;78;48.788;9.010;2023-05-27T00:33:04;32.50;;;9.57;;
179;SDS011;78;48.788;9.010;2023-05-27T00:35:30;33.70;;;9.70;;
179;SDS011;78;48.788;9.010;2023-05-27T00:37:56;30.43;;;9.37;;
179;SDS011;78;48.788;9.010;2023-05-27T00:40:23;27.27;;;8.90;;
179;SDS011;78;48.788;9.010;2023-05-27T00:42:50;29.00;;;9.00;;
179;SDS011;78;48.788;9.010;2023-05-27T00:45:16;28.07;;;9.37;;
179;SDS011;78;48.788;9.010;2023-05-27T00:47:43;28.97;;;9.20;;
179;SDS011;78;48.788;9.010;2023-05-27T00:50:09;28.17;;;8.40;;
179;SDS011;78;48.788;9.010;2023-05-27T00:52:36;29.27;;;8.83;;
179;SDS011;78;48.788;9.010;2023-05-27T00:55:02;29.40;;;9.10;;
179;SDS011;78;48.788;9.010;2023-05-27T00:57:29;31.70;;;9.33;;
179;SDS011;78;48.788;9.010;2023-05-27T00:59:55;29.90;;;8.53;;
179;SDS011;78;48.788;9.010;2023-05-27T01:02:21;28.97;;;8.40;;
179;SDS011;78;48.788;9.010;2023-05-27T01:04:47;33.17;;;7.93;;
179;SDS011;78;48.788;9.010;2023-05-27T01:07:14;32.30;;;8.67;;
179;SDS011;78;48.788;9.010;2023-05-27T01:09:53;28.33;;;8.60;;
179;SDS011;78;48.788;9.010;2023-05-27T01:12:30;27.37;;;8.57;;
179;SDS011;78;48.788;9.010;2023-05-27T01:14:57;37.13;;;8.03;;
179;SDS011;78;48.788;9.010;2023-05-27T01:17:25;29.80;;;8.30;;
179;SDS011;78;48.788;9.010;2023-05-27T01:19:53;33.77;;;8.70;;
179;SDS011;78;48.788;9.010;2023-05-27T01:22:20;29.50;;;8.40;;
179;SDS011;78;48.788;9.010;2023-05-27T01:24:46;25.53;;;7.80;;
179;SDS011;78;48.788;9.010;2023-05-27T01:27:12;34.73;;;8.67;;
179;SDS011;78;48.788;9.010;2023-05-27T01:29:40;34.30;;;8.87;;
179;SDS011;78;48.788;9.010;2023-05-27T01:37:31;34.83;;;9.50;;
179;SDS011;78;48.788;9.010;2023-05-27T01:39:59;25.90;;;8.20;;
179;SDS011;78;48.788;9.010;2023-05-27T01:42:30;32.40;;;9.30;;
179;SDS011;78;48.788;9.010;2023-05-27T01:44:56;29.10;;;8.40;;
179;SDS011;78;48.788;9.010;2023-05-27T01:47:25;31.20;;;9.30;;
179;SDS011;78;48.788;9.010;2023-05-27T01:49:52;34.37;;;8.73;;
179;SDS011;78;48.788;9.010;2023-05-27T01:52:19;28.90;;;9.13;;
179;SDS011;78;48.788;9.010;2023-05-27T01:54:45;29.93;;;9.47;;
179;SDS011;78;48.788;9.010;2023-05-27T01:57:12;30.90;;;9.57;;
179;SDS011;78;48.788;9.010;2023-05-27T01:59:38;27.83;;;9.30;;
179;SDS011;78;48.788;9.010;2023-05-27T02:02:04;27.80;;;8.97;;
179;SDS011;78;48.788;9.010;2023-05-27T02:04:30;28.70;;;9.40;;
179;SDS011;78;48.788;9.010;2023-05-27T02:06:56;31.40;;;9.30;;
179;SDS011;78;48.788;9.010;2023-05-27T02:09:23;33.50;;;9.73;;
179;SDS011;78;48.788;9.010;2023-05-27T02:11:49;31.00;;;9.10;;
179;SDS011;78;48.788;9.010;2023-05-27T02:14:16;32.13;;;10.00;;
179;SDS011;78;48.788;9.010;2023-05-27T02:16:42;26.10;;;9.00;;
179;SDS011;78;48.788;9.010;2023-05-27T02:19:09;33.57;;;10.60;;
179;SDS011;78;48.788;9.010;2023-05-27T02:21:35;33.20;;;9.30;;
179;SDS011;78;48.788;9.010;2023-05-27T02:24:01;31.40;;;10.20;;
179;SDS011;78;48.788;9.010;2023-05-27T02:26:28;32.97;;;9.83;;
179;SDS011;78;48.788;9.010;2023-05-27T02:28:54;33.03;;;9.77;;
179;SDS011;78;48.788;9.010;2023-05-27T02:31:21;32.90;;;9.73;;
179;SDS011;78;48.788;9.010;2023-05-27T02:33:48;30.03;;;9.20;;
179;SDS011;78;48.788;9.010;2023-05-27T02:36:14;32.40;;;9.73;;
179;SDS011;78;48.788;9.010;2023-05-27T02:38:40;35.07;;;10.40;;
179;SDS011;78;48.788;9.010;2023-05-27T02:41:06;28.80;;;9.43;;
179;SDS011;78;48.788;9.010;2023-05-27T02:43:32;34.30;;;9.40;;
179;SDS011;78;48.788;9.010;2023-05-27T02:45:58;30.03;;;9.50;;
179;SDS011;78;48.788;9.010;2023-05-27T02:48:25;28.90;;;9.10;;
179;SDS011;78;48.788;9.010;2023-05-27T02:50:51;30.53;;;8.73;;
179;SDS011;78;48.788;9.010;2023-05-27T02:53:18;31.67;;;9.90;;
179;SDS011;78;48.788;9.010;2023-05-27T02:55:44;31.47;;;9.60;;
179;SDS011;78;48.788;9.010;2023-05-27T02:58:10;31.17;;;9.27;;
179;SDS011;78;48.788;9.010;2023-05-27T03:00:37;31.27;;;9.27;;
179;SDS011;78;48.788;9.010;2023-05-27T03:03:03;28.20;;;8.63;;
179;SDS011;78;48.788;9.010;2023-05-27T03:05:31;34.70;;;9.27;;
179;SDS011;78;48.788;9.010;2023-05-27T03:07:58;32.93;;;10.07;;
179;SDS011;78;48.788;9.010;2023-05-27T03:10:24;30.17;;;8.90;;
179;SDS011;78;48.788;9.010;2023-05-27T03:12:51;32.27;;;9.60;;
179;SDS011;78;48.788;9.010;2023-05-27T03:15:17;33.30;;;9.70;;
179;SDS011;78;48.788;9.010;2023-05-27T03:17:44;27.60;;;8.50;;
179;SDS011;78;48.788;9.010;2023-05-27T03:20:10;28.37;;;9.30;;
179;SDS011;78;48.788;9.010;2023-05-27T03:22:38;30.63;;;8.67;;
179;SDS011;78;48.788;9.010;2023-05-27T03:25:04;27.80;;;9.00;;
179;SDS011;78;48.788;9.010;2023-05-27T03:27:31;28.73;;;9.10;;
179;SDS011;78;48.788;9.010;2023-05-27T03:29:57;27.80;;;9.30;;
179;SDS011;78;48.788;9.010;2023-05-27T03:32:24;29.63;;;9.60;;
179;SDS011;78;48.788;9.010;2023-05-27T03:34:50;34.70;;;10.03;;
179;SDS011;78;48.788;9.010;2023-05-27T03:37:16;32.20;;;9.70;;
179;SDS011;78;48.788;9.010;2023-05-27T03:39:42;33.50;;;9.80;;
179;SDS011;78;48.788;9.010;2023-05-27T03:42:09;33.73;;;9.03;;
179;SDS011;78;48.788;9.010;2023-05-27T03:44:36;35.83;;;10.30;;
179;SDS011;78;48.788;9.010;2023-05-27T03:47:02;33.83;;;10.00;;
179;SDS011;78;48.788;9.010;2023-05-27T03:49:28;29.83;;;9.03;;
179;SDS011;78;48.788;9.010;2023-05-27T03:51:54;31.37;;;9.33;;
179;SDS011;78;48.788;9.010;2023-05-27T03:54:20;28.30;;;8.40;;
179;SDS011;78;48.788;9.010;2023-05-27T03:56:46;27.87;;;9.40;;
179;SDS011;78;48.788;9.010;2023-05-27T03:59:13;35.90;;;9.93;;
179;SDS011;78;48.788;9.010;2023-05-27T04:01:39;29.70;;;9.37;;
179;SDS011;78;48.788;9.010;2023-05-27T04:04:06;32.57;;;10.70;;
179;SDS011;78;48.788;9.010;2023-05-27T04:06:33;35.47;;;10.43;;
179;SDS011;78;48.788;9.010;2023-05-27T04:08:59;32.83;;;10.50;;
179;SDS011;78;48.788;9.010;2023-05-27T04:11:26;31.00;;;9.60;;
179;SDS011;78;48.788;9.010;2023-05-27T04:13:53;33.73;;;10.20;;
179;SDS011;78;48.788;9.010;2023-05-27T04:16:20;34.20;;;9.80;;
179;SDS011;78;48.788;9.010;2023-05-27T04:18:47;37.10;;;10.30;;
179;SDS011;78;48.788;9.010;2023-05-27T04:21:17;33.93;;;9.60;;
179;SDS011;78;48.788;9.010;2023-05-27T04:23:43;33.83;;;10.57;;
179;SDS011;78;48.788;9.010;2023-05-27T04:26:09;37.27;;;11.00;;
179;SDS011;78;48.788;9.010;2023-05-27T04:28:36;31.43;;;10.33;;
179;SDS011;78;48.788;9.010;2023-05-27T04:31:04;30.10;;;10.10;;
179;SDS011;78;48.788;9.010;2023-05-27T04:33:30;30.33;;;9.90;;
179;SDS011;78;48.788;9.010;2023-05-27T04:35:56;32.33;;;10.00;;
179;SDS011;78;48.788;9.010;2023-05-27T04:38:22;35.53;;;9.80;;
179;SDS011;78;48.788;9.010;2023-05-27T04:40:49;38.97;;;10.83;;
179;SDS011;78;48.788;9.010;2023-05-27T04:43:20;35.00;;;10.53;;
179;SDS011;78;48.788;9.010;2023-05-27T04:45:46;42.53;;;10.90;;
179;SDS011;78;48.788;9.010;2023-05-27T04:48:13;35.93;;;10.70;;
179;SDS011;78;48.788;9.010;2023-05-27T04:50:41;39.13;;;10.70;;
179;SDS011;78;48.788;9.010;2023-05-27T04:53:08;37.70;;;10.50;;
179;SDS011;78;48.788;9.010;2023-05-27T04:55:34;43.73;;;10.43;;
179;SDS011;78;48.788;9.010;2023-05-27T04:58:02;35.13;;;10.73;;
179;SDS011;78;48.788;9.010;2023-05-27T05:00:29;41.20;;;10.00;;
179;SDS011;78;48.788;9.010;2023-05-27T05:03:04;38.53;;;10.20;;
179;SDS011;78;48.788;9.010;2023-05-27T05:05:32;34.30;;;8.60;;
179;SDS011;78;48.788;9.010;2023-05-27T05:07:59;39.87;;;9.40;;
179;SDS011;78;48.788;9.010;2023-05-27T05:10:25;37.63;;;9.90;;
179;SDS011;78;48.788;9.010;2023-05-27T05:12:51;33.83;;;9.00;;
179;SDS011;78;48.788;9.010;2023-05-27T05:15:18;33.73;;;9.33;;
179;SDS011;78;48.788;9.010;2023-05-27T05:17:44;41.33;;;9.00;;
179;SDS011;78;48.788;9.010;2023-05-27T05:20:11;32.93;;;8.97;;
179;SDS011;78;48.788;9.010;2023-05-27T05:22:37;33.60;;;9.23;;
179;SDS011;78;48.788;9.010;2023-05-27T05:25:04;38.93;;;9.20;;
179;SDS011;78;48.788;9.010;2023-05-27T05:27:30;31.17;;;9.00;;
179;SDS011;78;48.788;9.010;2023-05-27T05:29:56;39.03;;;9.27;;
179;SDS011;78;48.788;9.010;2023-05-27T05:32:23;34.23;;;9.33;;
179;SDS011;78;48.788;9.010;2023-05-27T05:34:49;40.80;;;8.60;;
179;SDS011;78;48.788;9.010;2023-05-27T05:37:16;34.47;;;9.07;;
179;SDS011;78;48.788;9.010;2023-05-27T05:39:42;38.83;;;8.50;;
179;SDS011;78;48.788;9.010;2023-05-27T05:42:09;39.53;;;8.47;;
179;SDS011;78;48.788;9.010;2023-05-27T05:44:35;32.10;;;8.53;;
179;SDS011;78;48.788;9.010;2023-05-27T05:47:01;42.30;;;8.13;;
179;SDS011;78;48.788;9.010;2023-05-27T05:49:28;37.83;;;9.00;;
179;SDS011;78;48.788;9.010;2023-05-27T05:51:54;31.50;;;8.10;;
179;SDS011;78;48.788;9.010;2023-05-27T05:54:20;33.50;;;8.57;;
179;SDS011;78;48.788;9.010;2023-05-27T05:56:47;31.10;;;8.40;;
179;SDS011;78;48.788;9.010;2023-05-27T05:59:14;30.33;;;7.90;;
179;SDS011;78;48.788;9.010;2023-05-27T06:01:41;38.40;;;8.10;;
179;SDS011;78;48.788;9.010;2023-05-27T06:04:07;43.90;;;8.03;;
179;SDS011;78;48.788;9.010;2023-05-27T06:06:33;34.20;;;8.10;;
179;SDS011;78;48.788;9.010;2023-05-27T06:08:59;34.37;;;8.67;;
179;SDS011;78;48.788;9.010;2023-05-27T06:11:26;38.10;;;8.30;;
179;SDS011;78;48.788;9.010;2023-05-27T06:13:52;34.67;;;8.07;;
179;SDS011;78;48.788;9.010;2023-05-27T06:16:18;33.97;;;8.07;;
179;SDS011;78;48.788;9.010;2023-05-27T06:18:45;34.00;;;8.47;;
179;SDS011;78;48.788;9.010;2023-05-27T06:21:12;34.37;;;8.77;;
179;SDS011;78;48.788;9.010;2023-05-27T06:23:38;39.93;;;8.07;;
179;SDS011;78;48.788;9.010;2023-05-27T06:26:05;41.53;;;8.33;;
179;SDS011;78;48.788;9.010;2023-05-27T06:28:31;28.17;;;7.10;;
179;SDS011;78;48.788;9.010;2023-05-27T06:30:57;32.13;;;8.00;;
179;SDS011;78;48.788;9.010;2023-05-27T06:33:24;29.70;;;7.53;;
179;SDS011;78;48.788;9.010;2023-05-27T06:35:50;32.20;;;8.23;;
179;SDS011;78;48.788;9.010;2023-05-27T06:38:16;30.47;;;7.80;;
179;SDS011;78;48.788;9.010;2023-05-27T06:40:42;35.70;;;8.23;;
179;SDS011;78;48.788;9.010;2023-05-27T06:43:08;30.83;;;7.83;;
179;SDS011;78;48.788;9.010;2023-05-27T06:45:34;28.63;;;7.57;;
179;SDS011;78;48.788;9.010;2023-05-27T06:48:00;35.97;;;8.80;;
179;SDS011;78;48.788;9.010;2023-05-27T06:50:26;34.20;;;7.90;;
179;SDS011;78;48.788;9.010;2023-05-27T06:52:53;29.03;;;6.73;;
179;SDS011;78;48.788;9.010;2023-05-27T06:55:20;28.67;;;7.37;;
179;SDS011;78;48.788;9.010;2023-05-27T06:57:46;35.40;;;7.50;;
179;SDS011;78;48.788;9.010;2023-05-27T07:00:12;33.23;;;7.20;;
179;SDS011;78;48.788;9.010;2023-05-27T07:02:38;33.93;;;7.50;;
179;SDS011;78;48.788;9.010;2023-05-27T07:05:04;28.93;;;7.33;;
179;SDS011;78;48.788;9.010;2023-05-27T07:07:31;29.80;;;7.23;;
179;SDS011;78;48.788;9.010;2023-05-27T07:09:57;35.50;;;7.90;;
179;SDS011;78;48.788;9.010;2023-05-27T07:12:23;37.77;;;7.47;;
179;SDS011;78;48.788;9.010;2023-05-27T07:14:49;28.43;;;6.80;;
179;SDS011;78;48.788;9.010;2023-05-27T07:17:16;36.03;;;7.67;;
179;SDS011;78;48.788;9.010;2023-05-27T07:19:42;36.63;;;7.80;;
179;SDS011;78;48.788;9.010;2023-05-27T07:22:09;27.23;;;7.10;;
179;SDS011;78;48.788;9.010;2023-05-27T07:24:35;33.00;;;7.90;;
179;SDS011;78;48.788;9.010;2023-05-27T07:27:02;26.67;;;6.73;;
179;SDS011;78;48.788;9.010;2023-05-27T07:29:28;34.33;;;7.10;;
179;SDS011;78;48.788;9.010;2023-05-27T07:31:54;32.90;;;7.57;;
179;SDS011;78;48.788;9.010;2023-05-27T07:34:21;29.70;;;7.33;;
179;SDS011;78;48.788;9.010;2023-05-27T07:36:47;28.80;;;7.30;;
179;SDS011;78;48.788;9.010;2023-05-27T07:39:14;29.93;;;7.07;;
179;SDS011;78;48.788;9.010;2023-05-27T07:41:40;29.07;;;6.90;;
179;SDS011;78;48.788;9.010;2023-05-27T07:44:07;32.40;;;7.80;;
179;SDS011;78;48.788;9.010;2023-05-27T07:46:33;27.80;;;7.30;;
179;SDS011;78;48.788;9.010;2023-05-27T07:48:59;35.17;;;7.30;;
179;SDS011;78;48.788;9.010;2023-05-27T07:51:25;33.60;;;6.97;;
179;SDS011;78;48.788;9.010;2023-05-27T07:53:51;30.17;;;7.20;;
179;SDS011;78;48.788;9.010;2023-05-27T07:56:17;34.60;;;7.33;;
179;SDS011;78;48.788;9.010;2023-05-27T07:58:43;33.07;;;7.60;;
179;SDS011;78;48.788;9.010;2023-05-27T08:01:09;29.63;;;7.50;;
179;SDS011;78;48.788;9.010;2023-05-27T08:03:35;33.67;;;7.80;;
179;SDS011;78;48.788;9.010;2023-05-27T08:06:01;27.83;;;7.07;;
179;SDS011;78;48.788;9.010;2023-05-27T08:08:27;34.10;;;7.27;;
179;SDS011;78;48.788;9.010;2023-05-27T08:10:53;33.67;;;7.60;;
179;SDS011;78;48.788;9.010;2023-05-27T08:13:19;27.30;;;7.60;;
179;SDS011;78;48.788;9.010;2023-05-27T08:15:45;31.73;;;7.17;;
179;SDS011;78;48.788;9.010;2023-05-27T08:18:12;34.23;;;7.53;;
179;SDS011;78;48.788;9.010;2023-05-27T08:20:38;31.83;;;7.00;;
179;SDS011;78;48.788;9.010;2023-05-27T08:23:04;31.43;;;7.70;;
179;SDS011;78;48.788;9.010;2023-05-27T08:25:30;29.03;;;6.93;;
179;SDS011;78;48.788;9.010;2023-05-27T08:27:56;36.10;;;7.60;;
179;SDS011;78;48.788;9.010;2023-05-27T08:30:27;29.87;;;7.40;;
179;SDS011;78;48.788;9.010;2023-05-27T08:32:56;34.90;;;8.03;;
179;SDS011;78;48.788;9.010;2023-05-27T08:35:23;35.03;;;8.10;;
179;SDS011;78;48.788;9.010;2023-05-27T08:37:49;27.27;;;7.30;;
179;SDS011;78;48.788;9.010;2023-05-27T08:40:17;28.77;;;7.40;;
179;SDS011;78;48.788;9.010;2023-05-27T08:42:43;32.17;;;7.60;;
179;SDS011;78;48.788;9.010;2023-05-27T08:45:11;31.03;;;7.73;;
179;SDS011;78;48.788;9.010;2023-05-27T08:47:38;25.47;;;6.93;;
179;SDS011;78;48.788;9.010;2023-05-27T08:50:04;25.67;;;6.80;;
179;SDS011;78;48.788;9.010;2023-05-27T08:52:31;31.83;;;7.60;;
179;SDS011;78;48.788;9.010;2023-05-27T08:54:57;29.53;;;7.43;;
179;SDS011;78;48.788;9.010;2023-05-27T08:57:31;29.70;;;7.10;;
179;SDS011;78;48.788;9.010;2023-05-27T08:59:58;28.20;;;7.33;;
179;SDS011;78;48.788;9.010;2023-05-27T09:02:24;32.23;;;7.60;;
179;SDS011;78;48.788;9.010;2023-05-27T09:04:50;27.40;;;7.33;;
179;SDS011;78;48.788;9.010;2023-05-27T09:07:20;31.03;;;7.97;;
179;SDS011;78;48.788;9.010;2023-05-27T09:09:56;31.40;;;7.57;;
179;SDS011;78;48.788;9.010;2023-05-27T09:12:23;28.67;;;7.73;;
179;SDS011;78;48.788;9.010;2023-05-27T09:14:50;40.30;;;8.27;;
179;SDS011;78;48.788;9.010;2023-05-27T09:17:16;29.33;;;7.33;;
179;SDS011;78;48.788;9.010;2023-05-27T09:19:43;27.93;;;6.87;;
179;SDS011;78;48.788;9.010;2023-05-27T09:22:17;33.50;;;7.63;;
179;SDS011;78;48.788;9.010;2023-05-27T09:24:43;27.33;;;7.50;;
179;SDS011;78;48.788;9.010;2023-05-27T09:27:09;28.97;;;7.30;;
179;SDS011;78;48.788;9.010;2023-05-27T09:29:37;29.30;;;7.90;;
179;SDS011;78;48.788;9.010;2023-05-27T09:32:07;27.80;;;7.27;;
179;SDS011;78;48.788;9.010;2023-05-27T09:34:39;25.23;;;7.13;;
179;SDS011;78;48.788;9.010;2023-05-27T09:37:05;25.00;;;6.93;;
179;SDS011;78;48.788;9.010;2023-05-27T09:39:39;30.70;;;7.20;;
179;SDS011;78;48.788;9.010;2023-05-27T09:42:05;24.80;;;6.57;;
179;SDS011;78;48.788;9.010;2023-05-27T09:44:34;23.67;;;6.63;;
179;SDS011;78;48.788;9.010;2023-05-27T09:47:05;24.60;;;7.30;;
179;SDS011;78;48.788;9.010;2023-05-27T09:49:33;28.83;;;7.63;;
179;SDS011;78;48.788;9.010;2023-05-27T09:52:02;26.60;;;7.93;;
179;SDS011;78;48.788;9.010;2023-05-27T09:54:29;26.60;;;7.63;;
179;SDS011;78;48.788;9.010;2023-05-27T09:56:56;26.10;;;7.23;;
179;SDS011;78;48.788;9.010;2023-05-27T09:59:22;28.10;;;7.33;;
179;SDS011;78;48.788;9.010;2023-05-27T10:01:48;27.07;;;7.00;;
179;SDS011;78;48.788;9.010;2023-05-27T10:04:16;22.80;;;6.70;;
179;SDS011;78;48.788;9.010;2023-05-27T10:06:44;26.07;;;7.23;;
179;SDS011;78;48.788;9.010;2023-05-27T10:09:10;26.63;;;6.60;;
179;SDS011;78;48.788;9.010;2023-05-27T10:11:38;27.67;;;7.37;;
179;SDS011;78;48.788;9.010;2023-05-27T10:14:05;24.13;;;6.50;;
179;SDS011;78;48.788;9.010;2023-05-27T10:16:31;32.20;;;6.70;;
179;SDS011;78;48.788;9.010;2023-05-27T10:18:58;28.10;;;7.03;;
179;SDS011;78;48.788;9.010;2023-05-27T10:21:28;26.07;;;6.40;;
179;SDS011;78;48.788;9.010;2023-05-27T10:23:59;41.03;;;6.60;;
179;SDS011;78;48.788;9.010;2023-05-27T10:26:32;29.97;;;7.37;;
179;SDS011;78;48.788;9.010;2023-05-27T10:29:05;27.93;;;6.10;;
179;SDS011;78;48.788;9.010;2023-05-27T10:31:32;28.50;;;6.50;;
179;SDS011;78;48.788;9.010;2023-05-27T10:33:59;26.40;;;6.70;;
179;SDS011;78;48.788;9.010;2023-05-27T10:36:25;25.57;;;6.93;;
179;SDS011;78;48.788;9.010;2023-05-27T10:38:54;30.83;;;6.47;;
179;SDS011;78;48.788;9.010;2023-05-27T10:41:20;23.27;;;6.17;;
179;SDS011;78;48.788;9.010;2023-05-27T10:43:54;23.30;;;6.60;;
179;SDS011;78;48.788;9.010;2023-05-27T10:46:21;23.03;;;6.20;;
179;SDS011;78;48.788;9.010;2023-05-27T10:48:47;21.97;;;5.60;;
179;SDS011;78;48.788;9.010;2023-05-27T10:51:13;24.67;;;6.50;;
179;SDS011;78;48.788;9.010;2023-05-27T10:53:39;24.30;;;5.57;;
179;SDS011;78;48.788;9.010;2023-05-27T10:56:05;25.47;;;6.20;;
179;SDS011;78;48.788;9.010;2023-05-27T10:58:34;24.50;;;6.13;;
179;SDS011;78;48.788;9.010;2023-05-27T11:01:00;21.53;;;5.43;;
179;SDS011;78;48.788;9.010;2023-05-27T11:03:27;19.90;;;5.33;;
179;SDS011;78;48.788;9.010;2023-05-27T11:06:00;27.73;;;6.30;;
179;SDS011;78;48.788;9.010;2023-05-27T11:08:26;22.80;;;6.17;;
179;SDS011;78;48.788;9.010;2023-05-27T11:13:34;23.20;;;7.00;;
179;SDS011;78;48.788;9.010;2023-05-27T11:16:01;26.90;;;5.77;;
179;SDS011;78;48.788;9.010;2023-05-27T11:18:34;20.93;;;6.03;;
179;SDS011;78;48.788;9.010;2023-05-27T11:21:00;19.27;;;5.53;;
179;SDS011;78;48.788;9.010;2023-05-27T11:23:33;26.70;;;5.97;;
179;SDS011;78;48.788;9.010;2023-05-27T11:25:59;23.03;;;5.50;;
179;SDS011;78;48.788;9.010;2023-05-27T11:28:26;18.40;;;5.03;;
179;SDS011;78;48.788;9.010;2023-05-27T11:30:57;25.73;;;6.37;;
179;SDS011;78;48.788;9.010;2023-05-27T11:33:29;22.27;;;6.10;;
179;SDS011;78;48.788;9.010;2023-05-27T11:36:03;23.70;;;6.20;;
179;SDS011;78;48.788;9.010;2023-05-27T11:38:29;21.80;;;6.10;;
179;SDS011;78;48.788;9.010;2023-05-27T11:40:55;20.47;;;5.57;;
179;SDS011;78;48.788;9.010;2023-05-27T11:43:32;22.60;;;6.17;;
179;SDS011;78;48.788;9.010;2023-05-27T11:46:04;22.77;;;6.20;;
179;SDS011;78;48.788;9.010;2023-05-27T11:48:30;25.30;;;5.93;;
179;SDS011;78;48.788;9.010;2023-05-27T11:50:56;21.83;;;6.07;;
179;SDS011;78;48.788;9.010;2023-05-27T11:53:22;19.63;;;5.73;;
179;SDS011;78;48.788;9.010;2023-05-27T11:55:48;22.53;;;5.40;;
179;SDS011;78;48.788;9.010;2023-05-27T11:58:14;22.10;;;6.00;;
179;SDS011;78;48.788;9.010;2023-05-27T12:00:40;22.17;;;6.23;;
179;SDS011;78;48.788;9.010;2023-05-27T12:03:06;18.80;;;5.30;;
179;SDS011;78;48.788;9.010;2023-05-27T12:05:32;20.30;;;5.57;;
179;SDS011;78;48.788;9.010;2023-05-27T12:07:58;25.60;;;5.97;;
179;SDS011;78;48.788;9.010;2023-05-27T12:10:24;23.67;;;5.80;;
179;SDS011;78;48.788;9.010;2023-05-27T12:12:50;29.87;;;5.50;;
179;SDS011;78;48.788;9.010;2023-05-27T12:15:16;20.63;;;5.27;;
179;SDS011;78;48.788;9.010;2023-05-27T12:17:42;21.17;;;5.73;;
179;SDS011;78;48.788;9.010;2023-05-27T12:20:08;22.13;;;6.33;;
179;SDS011;78;48.788;9.010;2023-05-27T12:22:35;20.70;;;5.80;;
179;SDS011;78;48.788;9.010;2023-05-27T12:25:01;22.70;;;5.30;;
179;SDS011;78;48.788;9.010;2023-05-27T12:27:27;26.20;;;5.80;;
179;SDS011;78;48.788;9.010;2023-05-27T12:29:53;18.90;;;4.93;;
179;SDS011;78;48.788;9.010;2023-05-27T12:32:19;24.03;;;6.00;;
179;SDS011;78;48.788;9.010;2023-05-27T12:34:45;22.90;;;6.10;;
179;SDS011;78;48.788;9.010;2023-05-27T12:37:12;22.83;;;6.00;;
179;SDS011;78;48.788;9.010;2023-05-27T12:39:38;19.03;;;4.93;;
179;SDS011;78;48.788;9.010;2023-05-27T12:42:04;21.20;;;5.50;;
179;SDS011;78;48.788;9.010;2023-05-27T12:44:30;21.10;;;6.30;;
179;SDS011;78;48.788;9.010;2023-05-27T12:46:56;22.87;;;5.77;;
179;SDS011;78;48.788;9.010;2023-05-27T12:49:22;21.83;;;5.70;;
179;SDS011;78;48.788;9.010;2023-05-27T12:51:48;20.03;;;5.40;;
179;SDS011;78;48.788;9.010;2023-05-27T12:54:14;26.93;;;5.60;;
179;SDS011;78;48.788;9.010;2023-05-27T12:56:40;21.70;;;5.53;;
179;SDS011;78;48.788;9.010;2023-05-27T12:59:06;21.90;;;5.73;;
179;SDS011;78;48.788;9.010;2023-05-27T13:01:32;21.97;;;5.60;;
179;SDS011;78;48.788;9.010;2023-05-27T13:03:58;21.50;;;5.60;;
179;SDS011;78;48.788;9.010;2023-05-27T13:06:24;21.63;;;5.53;;
179;SDS011;78;48.788;9.010;2023-05-27T13:08:50;19.63;;;5.60;;
179;SDS011;78;48.788;9.010;2023-05-27T13:11:16;25.30;;;5.60;;
179;SDS011;78;48.788;9.010;2023-05-27T13:13:42;23.07;;;6.10;;
179;SDS011;78;48.788;9.010;2023-05-27T13:16:08;17.50;;;5.00;;
179;SDS011;78;48.788;9.010;2023-05-27T13:18:34;19.63;;;5.43;;
179;SDS011;78;48.788;9.010;2023-05-27T13:21:01;19.70;;;5.20;;
179;SDS011;78;48.788;9.010;2023-05-27T13:23:28;20.07;;;5.50;;
179;SDS011;78;48.788;9.010;2023-05-27T13:25:54;23.73;;;5.97;;
179;SDS011;78;48.788;9.010;2023-05-27T13:28:20;20.03;;;5.77;;
179;SDS011;78;48.788;9.010;2023-05-27T13:30:46;19.57;;;5.43;;
179;SDS011;78;48.788;9.010;2023-05-27T13:33:12;21.37;;;5.53;;
179;SDS011;78;48.788;9.010;2023-05-27T13:35:38;22.47;;;5.70;;
179;SDS011;78;48.788;9.010;2023-05-27T13:38:04;23.50;;;5.80;;
179;SDS011;78;48.788;9.010;2023-05-27T13:40:31;24.07;;;6.50;;
179;SDS011;78;48.788;9.010;2023-05-27T13:42:57;23.93;;;5.77;;
179;SDS011;78;48.788;9.010;2023-05-27T13:45:23;21.20;;;5.63;;
179;SDS011;78;48.788;9.010;2023-05-27T13:47:49;24.40;;;5.80;;
179;SDS011;78;48.788;9.010;2023-05-27T13:50:16;20.53;;;5.10;;
179;SDS011;78;48.788;9.010;2023-05-27T13:52:44;21.90;;;5.70;;
179;SDS011;78;48.788;9.010;2023-05-27T13:55:11;18.53;;;4.80;;
179;SDS011;78;48.788;9.010;2023-05-27T13:57:37;29.10;;;5.97;;
179;SDS011;78;48.788;9.010;2023-05-27T14:00:05;23.57;;;5.13;;
179;SDS011;78;48.788;9.010;2023-05-27T14:02:31;24.00;;;5.93;;
179;SDS011;78;48.788;9.010;2023-05-27T14:04:57;23.83;;;6.10;;
179;SDS011;78;48.788;9.010;2023-05-27T14:07:23;20.17;;;5.60;;
179;SDS011;78;48.788;9.010;2023-05-27T14:09:49;19.77;;;5.23;;
179;SDS011;78;48.788;9.010;2023-05-27T14:12:15;20.00;;;5.67;;
179;SDS011;78;48.788;9.010;2023-05-27T14:14:41;19.00;;;5.53;;
179;SDS011;78;48.788;9.010;2023-05-27T14:17:07;20.57;;;5.30;;
179;SDS011;78;48.788;9.010;2023-05-27T14:19:33;20.03;;;5.80;;
179;SDS011;78;48.788;9.010;2023-05-27T14:21:59;21.50;;;5.40;;
179;SDS011;78;48.788;9.010;2023-05-27T14:24:25;19.37;;;5.43;;
179;SDS011;78;48.788;9.010;2023-05-27T14:26:51;21.53;;;5.77;;
179;SDS011;78;48.788;9.010;2023-05-27T14:29:17;22.17;;;5.20;;
179;SDS011;78;48.788;9.010;2023-05-27T14:31:43;21.57;;;5.73;;
179;SDS011;78;48.788;9.010;2023-05-27T14:34:09;22.10;;;5.20;;
179;SDS011;78;48.788;9.010;2023-05-27T14:36:35;16.92;;;4.78;;
179;SDS011;78;48.788;9.010;2023-05-27T14:39:01;18.77;;;4.60;;
179;SDS011;78;48.788;9.010;2023-05-27T14:41:30;17.70;;;4.57;;
179;SDS011;78;48.788;9.010;2023-05-27T14:43:56;20.57;;;5.20;;
179;SDS011;78;48.788;9.010;2023-05-27T14:46:22;19.13;;;4.90;;
179;SDS011;78;48.788;9.010;2023-05-27T14:48:48;18.73;;;4.50;;
179;SDS011;78;48.788;9.010;2023-05-27T14:51:14;18.08;;;4.53;;
179;SDS011;78;48.788;9.010;2023-05-27T14:53:41;19.35;;;4.70;;
179;SDS011;78;48.788;9.010;2023-05-27T14:56:07;20.08;;;4.43;;
179;SDS011;78;48.788;9.010;2023-05-27T14:58:33;18.20;;;4.35;;
179;SDS011;78;48.788;9.010;2023-05-27T15:00:59;18.88;;;4.50;;
179;SDS011;78;48.788;9.010;2023-05-27T15:03:25;19.20;;;4.88;;
179;SDS011;78;48.788;9.010;2023-05-27T15:05:54;17.83;;;4.20;;
179;SDS011;78;48.788;9.010;2023-05-27T15:08:22;16.67;;;3.92;;
179;SDS011;78;48.788;9.010;2023-05-27T15:10:48;18.13;;;4.15;;
179;SDS011;78;48.788;9.010;2023-05-27T15:13:15;17.40;;;3.90;;
179;SDS011;78;48.788;9.010;2023-05-27T15:15:41;18.95;;;4.00;;
179;SDS011;78;48.788;9.010;2023-05-27T15:18:09;18.15;;;4.00;;
179;SDS011;78;48.788;9.010;2023-05-27T15:20:35;21.98;;;5.03;;
179;SDS011;78;48.788;9.010;2023-05-27T15:23:01;18.83;;;4.05;;
179;SDS011;78;48.788;9.010;2023-05-27T15:25:27;18.08;;;3.97;;
179;SDS011;78;48.788;9.010;2023-05-27T15:27:53;17.38;;;4.10;;
179;SDS011;78;48.788;9.010;2023-05-27T15:30:19;17.23;;;3.80;;
179;SDS011;78;48.788;9.010;2023-05-27T15:32:45;17.60;;;4.20;;
179;SDS011;78;48.788;9.010;2023-05-27T15:35:11;17.33;;;3.90;;
179;SDS011;78;48.788;9.010;2023-05-27T15:37:37;20.58;;;4.82;;
179;SDS011;78;48.788;9.010;2023-05-27T15:40:06;19.02;;;4.18;;
179;SDS011;78;48.788;9.010;2023-05-27T15:42:32;16.83;;;3.90;;
179;SDS011;78;48.788;9.010;2023-05-27T15:44:59;21.50;;;3.77;;
179;SDS011;78;48.788;9.010;2023-05-27T15:47:25;17.30;;;3.97;;
179;SDS011;78;48.788;9.010;2023-05-27T15:49:51;19.17;;;3.80;;